sensor_id;sensor_type;location;lat;lon;timestamp;P1;durP1;ratioP1;P2;durP2;ratioP2
32455;SDS011;18912;43.270;27.942;2022-09-29T00:01:45;45.73;;;13.93;;
32455;SDS011;18912;43.270;27.942;2022-09-29T00:04:10;249.90;;;20.53;;
32455;SDS011;18912;43.270;27.942;2022-09-29T00:06:36;408.13;;;24.23;;
32455;SDS011;18912;43.270;27.942;2022-09-29T00:09:01;410.53;;;26.27;;
32455;SDS011;18912;43.270;27.942;2022-09-29T00:11:27;153.17;;;21.17;;
32455;SDS011;18912;43.270;27.942;2022-09-29T00:13:53;261.13;;;16.07;;
32455;SDS011;18912;43.270;27.942;2022-09-29T00:16:19;163.50;;;17.67;;
32455;SDS011;18912;43.270;27.942;2022-09-29T00:18:44;158.33;;;17.90;;
32455;SDS011;18912;43.270;27.942;2022-09-29T00:21:14;194.30;;;17.13;;
32455;SDS011;18912;43.270;27.942;2022-09-29T00:23:43;219.02;;;15.85;;
32455;SDS011;18912;43.270;27.942;2022-09-29T00:26:11;130.80;;;14.80;;
32455;SDS011;18912;43.270;27.942;2022-09-29T00:28:40;239.13;;;15.13;;
32455;SDS011;18912;43.270;27.942;2022-09-29T00:31:09;156.25;;;12.77;;
32455;SDS011;18912;43.270;27.942;2022-09-29T00:36:03;209.48;;;9.00;;
32455;SDS011;18912;43.270;27.942;2022-09-29T00:38:34;339.40;;;11.98;;
32455;SDS011;18912;43.270;27.942;2022-09-29T00:41:01;379.75;;;14.63;;
32455;SDS011;18912;43.270;27.942;2022-09-29T00:46:11;223.40;;;12.75;;
32455;SDS011;18912;43.270;27.942;2022-09-29T00:48:40;185.68;;;9.65;;
32455;SDS011;18912;43.270;27.942;2022-09-29T00:51:05;128.70;;;8.97;;
32455;SDS011;18912;43.270;27.942;2022-09-29T00:53:32;206.18;;;10.48;;
32455;SDS011;18912;43.270;27.942;2022-09-29T00:58:32;29.63;;;8.98;;
32455;SDS011;18912;43.270;27.942;2022-09-29T01:01:01;11.05;;;7.88;;
32455;SDS011;18912;43.270;27.942;2022-09-29T01:03:30;85.03;;;7.75;;
32455;SDS011;18912;43.270;27.942;2022-09-29T01:06:09;20.17;;;7.70;;
32455;SDS011;18912;43.270;27.942;2022-09-29T01:11:09;10.30;;;7.60;;
32455;SDS011;18912;43.270;27.942;2022-09-29T01:13:36;16.38;;;9.38;;
32455;SDS011;18912;43.270;27.942;2022-09-29T01:16:02;37.92;;;10.18;;
32455;SDS011;18912;43.270;27.942;2022-09-29T01:18:28;16.80;;;8.87;;
32455;SDS011;18912;43.270;27.942;2022-09-29T01:32:23;24.42;;;10.15;;
32455;SDS011;18912;43.270;27.942;2022-09-29T01:37:48;33.00;;;12.90;;
32455;SDS011;18912;43.270;27.942;2022-09-29T01:43:45;32.28;;;13.45;;
32455;SDS011;18912;43.270;27.942;2022-09-29T01:46:27;41.17;;;16.20;;
32455;SDS011;18912;43.270;27.942;2022-09-29T01:48:57;88.10;;;21.30;;
32455;SDS011;18912;43.270;27.942;2022-09-29T01:51:29;216.10;;;26.25;;
32455;SDS011;18912;43.270;27.942;2022-09-29T01:54:02;238.25;;;28.60;;
32455;SDS011;18912;43.270;27.942;2022-09-29T01:56:35;586.60;;;35.03;;
32455;SDS011;18912;43.270;27.942;2022-09-29T02:02:11;622.15;;;35.17;;
32455;SDS011;18912;43.270;27.942;2022-09-29T02:04:48;1387.35;;;54.58;;
32455;SDS011;18912;43.270;27.942;2022-09-29T02:07:37;1026.90;;;44.05;;
32455;SDS011;18912;43.270;27.942;2022-09-29T02:10:12;1183.55;;;49.85;;
32455;SDS011;18912;43.270;27.942;2022-09-29T02:12:42;871.65;;;42.05;;
32455;SDS011;18912;43.270;27.942;2022-09-29T02:15:11;815.63;;;57.80;;
32455;SDS011;18912;43.270;27.942;2022-09-29T02:17:43;757.70;;;54.00;;
32455;SDS011;18912;43.270;27.942;2022-09-29T02:20:12;582.33;;;31.80;;
32455;SDS011;18912;43.270;27.942;2022-09-29T02:22:39;693.90;;;32.85;;
32455;SDS011;18912;43.270;27.942;2022-09-29T02:25:07;479.42;;;23.98;;
32455;SDS011;18912;43.270;27.942;2022-09-29T02:27:34;319.42;;;20.92;;
32455;SDS011;18912;43.270;27.942;2022-09-29T02:30:01;290.35;;;22.35;;
32455;SDS011;18912;43.270;27.942;2022-09-29T02:32:27;77.20;;;24.25;;
32455;SDS011;18912;43.270;27.942;2022-09-29T02:40:31;38.00;;;18.63;;
32455;SDS011;18912;43.270;27.942;2022-09-29T02:48:14;23.50;;;14.18;;
32455;SDS011;18912;43.270;27.942;2022-09-29T02:56:18;22.88;;;12.18;;
32455;SDS011;18912;43.270;27.942;2022-09-29T02:59:34;23.95;;;11.70;;
32455;SDS011;18912;43.270;27.942;2022-09-29T03:02:00;28.05;;;12.55;;
32455;SDS011;18912;43.270;27.942;2022-09-29T03:04:26;23.77;;;12.50;;
32455;SDS011;18912;43.270;27.942;2022-09-29T03:06:52;25.08;;;11.57;;
32455;SDS011;18912;43.270;27.942;2022-09-29T03:09:19;24.73;;;11.27;;
32455;SDS011;18912;43.270;27.942;2022-09-29T03:11:44;25.17;;;10.83;;
32455;SDS011;18912;43.270;27.942;2022-09-29T03:14:10;21.03;;;10.43;;
32455;SDS011;18912;43.270;27.942;2022-09-29T03:16:36;19.00;;;10.48;;
32455;SDS011;18912;43.270;27.942;2022-09-29T03:19:03;17.67;;;9.13;;
32455;SDS011;18912;43.270;27.942;2022-09-29T03:21:29;20.73;;;9.60;;
32455;SDS011;18912;43.270;27.942;2022-09-29T03:23:55;16.85;;;8.98;;
32455;SDS011;18912;43.270;27.942;2022-09-29T03:26:21;17.93;;;9.17;;
32455;SDS011;18912;43.270;27.942;2022-09-29T03:28:48;18.20;;;10.13;;
32455;SDS011;18912;43.270;27.942;2022-09-29T03:31:14;15.60;;;8.90;;
32455;SDS011;18912;43.270;27.942;2022-09-29T03:33:40;21.00;;;8.83;;
32455;SDS011;18912;43.270;27.942;2022-09-29T03:36:05;19.47;;;9.83;;
32455;SDS011;18912;43.270;27.942;2022-09-29T03:38:31;22.70;;;10.60;;
32455;SDS011;18912;43.270;27.942;2022-09-29T03:40:57;17.00;;;9.40;;
32455;SDS011;18912;43.270;27.942;2022-09-29T03:43:23;15.43;;;9.23;;
32455;SDS011;18912;43.270;27.942;2022-09-29T03:45:49;23.47;;;8.83;;
32455;SDS011;18912;43.270;27.942;2022-09-29T03:48:19;17.58;;;8.57;;
32455;SDS011;18912;43.270;27.942;2022-09-29T03:50:46;15.20;;;7.80;;
32455;SDS011;18912;43.270;27.942;2022-09-29T03:53:14;12.55;;;7.28;;
32455;SDS011;18912;43.270;27.942;2022-09-29T03:55:40;15.48;;;8.10;;
32455;SDS011;18912;43.270;27.942;2022-09-29T03:58:10;26.90;;;11.13;;
32455;SDS011;18912;43.270;27.942;2022-09-29T04:00:35;40.87;;;15.57;;
32455;SDS011;18912;43.270;27.942;2022-09-29T04:03:01;24.37;;;15.20;;
32455;SDS011;18912;43.270;27.942;2022-09-29T04:05:28;19.23;;;10.90;;
32455;SDS011;18912;43.270;27.942;2022-09-29T04:07:54;24.40;;;9.25;;
32455;SDS011;18912;43.270;27.942;2022-09-29T04:10:20;24.17;;;12.02;;
32455;SDS011;18912;43.270;27.942;2022-09-29T04:12:45;21.20;;;13.93;;
32455;SDS011;18912;43.270;27.942;2022-09-29T04:15:10;22.10;;;11.47;;
32455;SDS011;18912;43.270;27.942;2022-09-29T04:17:36;24.60;;;11.00;;
32455;SDS011;18912;43.270;27.942;2022-09-29T04:20:01;18.90;;;10.07;;
32455;SDS011;18912;43.270;27.942;2022-09-29T04:22:27;17.67;;;9.27;;
32455;SDS011;18912;43.270;27.942;2022-09-29T04:24:52;17.07;;;8.73;;
32455;SDS011;18912;43.270;27.942;2022-09-29T04:27:18;18.53;;;8.77;;
32455;SDS011;18912;43.270;27.942;2022-09-29T04:29:43;10.70;;;7.37;;
32455;SDS011;18912;43.270;27.942;2022-09-29T04:32:09;17.83;;;8.40;;
32455;SDS011;18912;43.270;27.942;2022-09-29T04:34:35;19.13;;;8.80;;
32455;SDS011;18912;43.270;27.942;2022-09-29T04:37:01;17.10;;;8.10;;
32455;SDS011;18912;43.270;27.942;2022-09-29T04:39:27;16.15;;;8.70;;
32455;SDS011;18912;43.270;27.942;2022-09-29T04:41:52;25.53;;;8.77;;
32455;SDS011;18912;43.270;27.942;2022-09-29T04:44:18;17.07;;;7.87;;
32455;SDS011;18912;43.270;27.942;2022-09-29T04:46:51;11.05;;;5.18;;
32455;SDS011;18912;43.270;27.942;2022-09-29T04:49:17;17.40;;;4.60;;
32455;SDS011;18912;43.270;27.942;2022-09-29T04:51:43;14.30;;;3.85;;
32455;SDS011;18912;43.270;27.942;2022-09-29T04:54:09;8.10;;;3.63;;
32455;SDS011;18912;43.270;27.942;2022-09-29T04:56:34;15.83;;;4.13;;
32455;SDS011;18912;43.270;27.942;2022-09-29T04:59:00;7.00;;;3.83;;
32455;SDS011;18912;43.270;27.942;2022-09-29T05:01:25;10.10;;;3.33;;
32455;SDS011;18912;43.270;27.942;2022-09-29T05:03:51;5.00;;;3.07;;
32455;SDS011;18912;43.270;27.942;2022-09-29T05:06:17;7.93;;;3.10;;
32455;SDS011;18912;43.270;27.942;2022-09-29T05:08:42;4.60;;;2.87;;
32455;SDS011;18912;43.270;27.942;2022-09-29T05:11:08;12.57;;;3.13;;
32455;SDS011;18912;43.270;27.942;2022-09-29T05:13:35;5.13;;;2.60;;
32455;SDS011;18912;43.270;27.942;2022-09-29T05:16:00;13.80;;;3.17;;
32455;SDS011;18912;43.270;27.942;2022-09-29T05:18:27;4.68;;;2.55;;
32455;SDS011;18912;43.270;27.942;2022-09-29T05:20:52;4.40;;;2.63;;
32455;SDS011;18912;43.270;27.942;2022-09-29T05:23:18;11.53;;;2.60;;
32455;SDS011;18912;43.270;27.942;2022-09-29T05:25:43;5.93;;;2.47;;
32455;SDS011;18912;43.270;27.942;2022-09-29T05:28:10;8.67;;;2.50;;
32455;SDS011;18912;43.270;27.942;2022-09-29T05:30:36;5.15;;;2.60;;
32455;SDS011;18912;43.270;27.942;2022-09-29T05:33:02;7.03;;;2.58;;
32455;SDS011;18912;43.270;27.942;2022-09-29T05:35:28;8.70;;;2.97;;
32455;SDS011;18912;43.270;27.942;2022-09-29T05:37:53;7.87;;;2.33;;
32455;SDS011;18912;43.270;27.942;2022-09-29T05:40:19;6.43;;;2.53;;
32455;SDS011;18912;43.270;27.942;2022-09-29T05:42:48;8.48;;;2.85;;
32455;SDS011;18912;43.270;27.942;2022-09-29T05:45:13;10.73;;;2.63;;
32455;SDS011;18912;43.270;27.942;2022-09-29T05:47:42;7.53;;;2.40;;
32455;SDS011;18912;43.270;27.942;2022-09-29T05:50:11;5.57;;;2.20;;
32455;SDS011;18912;43.270;27.942;2022-09-29T05:52:38;9.80;;;2.80;;
32455;SDS011;18912;43.270;27.942;2022-09-29T05:55:04;3.15;;;1.90;;
32455;SDS011;18912;43.270;27.942;2022-09-29T05:57:33;9.15;;;2.38;;
32455;SDS011;18912;43.270;27.942;2022-09-29T05:59:58;9.37;;;1.63;;
32455;SDS011;18912;43.270;27.942;2022-09-29T06:02:24;7.97;;;1.90;;
32455;SDS011;18912;43.270;27.942;2022-09-29T06:04:49;10.83;;;1.60;;
32455;SDS011;18912;43.270;27.942;2022-09-29T06:07:15;6.20;;;1.97;;
32455;SDS011;18912;43.270;27.942;2022-09-29T06:09:40;5.53;;;2.63;;
32455;SDS011;18912;43.270;27.942;2022-09-29T06:12:06;8.43;;;2.27;;
32455;SDS011;18912;43.270;27.942;2022-09-29T06:14:31;7.07;;;2.20;;
32455;SDS011;18912;43.270;27.942;2022-09-29T06:16:57;3.30;;;2.03;;
32455;SDS011;18912;43.270;27.942;2022-09-29T06:19:22;8.07;;;2.83;;
32455;SDS011;18912;43.270;27.942;2022-09-29T06:21:48;9.67;;;2.33;;
32455;SDS011;18912;43.270;27.942;2022-09-29T06:24:13;8.07;;;2.20;;
32455;SDS011;18912;43.270;27.942;2022-09-29T06:26:39;8.60;;;2.17;;
32455;SDS011;18912;43.270;27.942;2022-09-29T06:29:05;3.50;;;1.97;;
32455;SDS011;18912;43.270;27.942;2022-09-29T06:31:30;5.27;;;2.07;;
32455;SDS011;18912;43.270;27.942;2022-09-29T06:33:57;9.33;;;2.47;;
32455;SDS011;18912;43.270;27.942;2022-09-29T06:39:19;5.80;;;1.73;;
32455;SDS011;18912;43.270;27.942;2022-09-29T06:41:45;4.57;;;1.90;;
32455;SDS011;18912;43.270;27.942;2022-09-29T06:44:26;6.22;;;2.00;;
32455;SDS011;18912;43.270;27.942;2022-09-29T06:46:54;9.93;;;1.90;;
32455;SDS011;18912;43.270;27.942;2022-09-29T06:49:20;9.10;;;1.67;;
32455;SDS011;18912;43.270;27.942;2022-09-29T06:51:46;6.47;;;2.15;;
32455;SDS011;18912;43.270;27.942;2022-09-29T06:54:13;8.73;;;2.60;;
32455;SDS011;18912;43.270;27.942;2022-09-29T06:56:40;17.13;;;3.05;;
32455;SDS011;18912;43.270;27.942;2022-09-29T06:59:05;10.53;;;2.60;;
32455;SDS011;18912;43.270;27.942;2022-09-29T07:01:31;5.35;;;2.13;;
32455;SDS011;18912;43.270;27.942;2022-09-29T07:03:57;11.68;;;3.42;;
32455;SDS011;18912;43.270;27.942;2022-09-29T07:06:24;10.75;;;3.88;;
32455;SDS011;18912;43.270;27.942;2022-09-29T07:08:53;11.53;;;3.50;;
32455;SDS011;18912;43.270;27.942;2022-09-29T07:11:20;13.07;;;3.47;;
32455;SDS011;18912;43.270;27.942;2022-09-29T07:13:45;6.22;;;2.60;;
32455;SDS011;18912;43.270;27.942;2022-09-29T07:16:12;11.47;;;2.60;;
32455;SDS011;18912;43.270;27.942;2022-09-29T07:21:05;3.88;;;1.80;;
32455;SDS011;18912;43.270;27.942;2022-09-29T07:23:34;2.83;;;1.95;;
32455;SDS011;18912;43.270;27.942;2022-09-29T07:25:59;4.13;;;2.33;;
32455;SDS011;18912;43.270;27.942;2022-09-29T07:28:25;5.60;;;2.43;;
32455;SDS011;18912;43.270;27.942;2022-09-29T07:30:58;5.75;;;2.42;;
32455;SDS011;18912;43.270;27.942;2022-09-29T07:33:24;8.05;;;2.22;;
32455;SDS011;18912;43.270;27.942;2022-09-29T07:35:53;4.67;;;2.00;;
32455;SDS011;18912;43.270;27.942;2022-09-29T07:38:19;10.75;;;2.58;;
32455;SDS011;18912;43.270;27.942;2022-09-29T07:40:45;7.50;;;3.28;;
32455;SDS011;18912;43.270;27.942;2022-09-29T07:43:10;18.83;;;3.10;;
32455;SDS011;18912;43.270;27.942;2022-09-29T07:45:36;8.60;;;2.53;;
32455;SDS011;18912;43.270;27.942;2022-09-29T07:48:01;7.90;;;2.65;;
32455;SDS011;18912;43.270;27.942;2022-09-29T07:50:27;9.70;;;3.00;;
32455;SDS011;18912;43.270;27.942;2022-09-29T07:52:53;7.90;;;2.43;;
32455;SDS011;18912;43.270;27.942;2022-09-29T07:55:18;4.50;;;2.37;;
32455;SDS011;18912;43.270;27.942;2022-09-29T08:00:13;5.38;;;2.53;;
32455;SDS011;18912;43.270;27.942;2022-09-29T08:02:39;8.75;;;2.70;;
32455;SDS011;18912;43.270;27.942;2022-09-29T08:05:05;11.33;;;3.10;;
32455;SDS011;18912;43.270;27.942;2022-09-29T08:07:31;6.27;;;2.57;;
32455;SDS011;18912;43.270;27.942;2022-09-29T08:09:56;5.73;;;2.53;;
32455;SDS011;18912;43.270;27.942;2022-09-29T08:12:23;5.85;;;2.22;;
32455;SDS011;18912;43.270;27.942;2022-09-29T08:14:48;6.50;;;2.43;;
32455;SDS011;18912;43.270;27.942;2022-09-29T08:17:14;6.60;;;1.90;;
32455;SDS011;18912;43.270;27.942;2022-09-29T08:19:40;5.87;;;2.60;;
32455;SDS011;18912;43.270;27.942;2022-09-29T08:22:06;5.47;;;2.63;;
32455;SDS011;18912;43.270;27.942;2022-09-29T08:24:32;11.23;;;2.08;;
32455;SDS011;18912;43.270;27.942;2022-09-29T08:27:00;11.25;;;3.78;;
32455;SDS011;18912;43.270;27.942;2022-09-29T08:29:26;15.82;;;6.03;;
32455;SDS011;18912;43.270;27.942;2022-09-29T08:31:51;9.97;;;2.63;;
32455;SDS011;18912;43.270;27.942;2022-09-29T08:34:19;5.55;;;2.78;;
32455;SDS011;18912;43.270;27.942;2022-09-29T08:36:45;6.90;;;2.37;;
32455;SDS011;18912;43.270;27.942;2022-09-29T08:39:10;11.60;;;2.60;;
32455;SDS011;18912;43.270;27.942;2022-09-29T08:46:51;5.70;;;2.35;;
32455;SDS011;18912;43.270;27.942;2022-09-29T08:49:42;5.47;;;2.20;;
32455;SDS011;18912;43.270;27.942;2022-09-29T08:52:21;6.57;;;2.60;;
32455;SDS011;18912;43.270;27.942;2022-09-29T08:54:52;5.88;;;2.05;;
32455;SDS011;18912;43.270;27.942;2022-09-29T08:57:47;5.97;;;2.60;;
32455;SDS011;18912;43.270;27.942;2022-09-29T09:00:19;12.63;;;2.47;;
32455;SDS011;18912;43.270;27.942;2022-09-29T09:22:59;12.52;;;3.30;;
32455;SDS011;18912;43.270;27.942;2022-09-29T09:25:38;7.85;;;2.53;;
32455;SDS011;18912;43.270;27.942;2022-09-29T09:28:32;9.65;;;2.60;;
32455;SDS011;18912;43.270;27.942;2022-09-29T09:31:17;9.40;;;2.58;;
32455;SDS011;18912;43.270;27.942;2022-09-29T09:33:59;8.02;;;2.58;;
32455;SDS011;18912;43.270;27.942;2022-09-29T09:36:44;5.57;;;2.78;;
32455;SDS011;18912;43.270;27.942;2022-09-29T09:41:49;10.05;;;2.65;;
32455;SDS011;18912;43.270;27.942;2022-09-29T09:44:19;9.23;;;2.53;;
32455;SDS011;18912;43.270;27.942;2022-09-29T09:46:52;12.80;;;3.15;;
32455;SDS011;18912;43.270;27.942;2022-09-29T09:49:20;12.20;;;2.97;;
32455;SDS011;18912;43.270;27.942;2022-09-29T09:54:23;12.10;;;2.92;;
32455;SDS011;18912;43.270;27.942;2022-09-29T09:56:56;9.65;;;3.53;;
32455;SDS011;18912;43.270;27.942;2022-09-29T09:59:33;14.75;;;3.92;;
32455;SDS011;18912;43.270;27.942;2022-09-29T10:02:19;12.15;;;3.17;;
32455;SDS011;18912;43.270;27.942;2022-09-29T10:04:52;16.65;;;3.38;;
32455;SDS011;18912;43.270;27.942;2022-09-29T10:07:19;10.75;;;3.58;;
32455;SDS011;18912;43.270;27.942;2022-09-29T10:09:46;10.93;;;3.15;;
32455;SDS011;18912;43.270;27.942;2022-09-29T10:12:16;16.83;;;3.70;;
32455;SDS011;18912;43.270;27.942;2022-09-29T10:14:52;11.85;;;3.72;;
32455;SDS011;18912;43.270;27.942;2022-09-29T10:17:30;11.00;;;3.63;;
32455;SDS011;18912;43.270;27.942;2022-09-29T10:20:05;12.70;;;3.67;;
32455;SDS011;18912;43.270;27.942;2022-09-29T10:22:32;13.18;;;4.32;;
32455;SDS011;18912;43.270;27.942;2022-09-29T10:27:33;18.00;;;6.22;;
32455;SDS011;18912;43.270;27.942;2022-09-29T10:30:00;14.95;;;3.72;;
32455;SDS011;18912;43.270;27.942;2022-09-29T10:35:07;13.98;;;3.55;;
32455;SDS011;18912;43.270;27.942;2022-09-29T10:37:46;12.05;;;4.28;;
32455;SDS011;18912;43.270;27.942;2022-09-29T10:40:18;14.02;;;4.13;;
32455;SDS011;18912;43.270;27.942;2022-09-29T10:42:46;15.73;;;4.65;;
32455;SDS011;18912;43.270;27.942;2022-09-29T10:45:18;16.33;;;4.50;;
32455;SDS011;18912;43.270;27.942;2022-09-29T10:52:54;18.70;;;4.80;;
32455;SDS011;18912;43.270;27.942;2022-09-29T10:55:26;13.50;;;4.00;;
32455;SDS011;18912;43.270;27.942;2022-09-29T10:57:52;25.00;;;4.43;;
32455;SDS011;18912;43.270;27.942;2022-09-29T12:31:41;11.32;;;5.20;;
32455;SDS011;18912;43.270;27.942;2022-09-29T12:34:16;10.02;;;4.18;;
32455;SDS011;18912;43.270;27.942;2022-09-29T12:43:01;7.43;;;3.00;;
32455;SDS011;18912;43.270;27.942;2022-09-29T12:56:42;6.97;;;2.95;;
32455;SDS011;18912;43.270;27.942;2022-09-29T13:01:53;14.88;;;4.40;;
32455;SDS011;18912;43.270;27.942;2022-09-29T13:15:37;13.60;;;4.93;;
32455;SDS011;18912;43.270;27.942;2022-09-29T13:24:09;19.58;;;5.57;;
32455;SDS011;18912;43.270;27.942;2022-09-29T13:29:25;16.58;;;5.65;;
32455;SDS011;18912;43.270;27.942;2022-09-29T13:31:54;14.23;;;4.97;;
32455;SDS011;18912;43.270;27.942;2022-09-29T13:34:28;12.80;;;4.93;;
32455;SDS011;18912;43.270;27.942;2022-09-29T13:37:03;19.67;;;5.72;;
32455;SDS011;18912;43.270;27.942;2022-09-29T13:39:31;20.65;;;6.07;;
32455;SDS011;18912;43.270;27.942;2022-09-29T13:44:43;13.23;;;4.35;;
32455;SDS011;18912;43.270;27.942;2022-09-29T13:47:43;13.63;;;4.70;;
32455;SDS011;18912;43.270;27.942;2022-09-29T13:50:59;12.43;;;5.25;;
32455;SDS011;18912;43.270;27.942;2022-09-29T13:53:25;14.35;;;5.55;;
32455;SDS011;18912;43.270;27.942;2022-09-29T13:58:29;14.90;;;4.78;;
32455;SDS011;18912;43.270;27.942;2022-09-29T14:00:58;17.92;;;5.15;;
32455;SDS011;18912;43.270;27.942;2022-09-29T14:03:32;16.20;;;5.25;;
32455;SDS011;18912;43.270;27.942;2022-09-29T14:08:34;14.15;;;5.25;;
32455;SDS011;18912;43.270;27.942;2022-09-29T14:11:13;14.10;;;5.57;;
32455;SDS011;18912;43.270;27.942;2022-09-29T14:18:54;18.98;;;5.25;;
32455;SDS011;18912;43.270;27.942;2022-09-29T14:21:44;28.35;;;6.50;;
32455;SDS011;18912;43.270;27.942;2022-09-29T14:29:53;20.50;;;6.70;;
32455;SDS011;18912;43.270;27.942;2022-09-29T14:32:21;22.00;;;7.32;;
32455;SDS011;18912;43.270;27.942;2022-09-29T14:34:56;22.92;;;6.65;;
32455;SDS011;18912;43.270;27.942;2022-09-29T14:37:25;13.82;;;6.43;;
32455;SDS011;18912;43.270;27.942;2022-09-29T14:39:51;16.35;;;5.90;;
32455;SDS011;18912;43.270;27.942;2022-09-29T14:42:37;12.05;;;5.60;;
32455;SDS011;18912;43.270;27.942;2022-09-29T14:45:03;36.87;;;8.47;;
32455;SDS011;18912;43.270;27.942;2022-09-29T14:50:48;23.73;;;10.35;;
32455;SDS011;18912;43.270;27.942;2022-09-29T15:04:37;24.27;;;9.30;;
32455;SDS011;18912;43.270;27.942;2022-09-29T15:07:04;29.02;;;9.60;;
32455;SDS011;18912;43.270;27.942;2022-09-29T15:09:36;22.27;;;9.75;;
32455;SDS011;18912;43.270;27.942;2022-09-29T15:12:11;24.75;;;10.13;;
32455;SDS011;18912;43.270;27.942;2022-09-29T15:14:39;29.50;;;9.55;;
32455;SDS011;18912;43.270;27.942;2022-09-29T15:25:29;20.70;;;10.75;;
32455;SDS011;18912;43.270;27.942;2022-09-29T15:27:59;21.13;;;9.80;;
32455;SDS011;18912;43.270;27.942;2022-09-29T15:30:28;22.30;;;9.57;;
32455;SDS011;18912;43.270;27.942;2022-09-29T15:33:29;21.55;;;9.02;;
32455;SDS011;18912;43.270;27.942;2022-09-29T15:36:34;32.90;;;9.98;;
32455;SDS011;18912;43.270;27.942;2022-09-29T15:38:44;19.17;;;8.10;;
32455;SDS011;18912;43.270;27.942;2022-09-29T15:46:47;19.98;;;6.35;;
32455;SDS011;18912;43.270;27.942;2022-09-29T15:51:30;21.73;;;6.77;;
32455;SDS011;18912;43.270;27.942;2022-09-29T15:53:55;17.00;;;7.03;;
32455;SDS011;18912;43.270;27.942;2022-09-29T15:56:24;18.02;;;6.38;;
32455;SDS011;18912;43.270;27.942;2022-09-29T15:58:49;19.90;;;7.23;;
32455;SDS011;18912;43.270;27.942;2022-09-29T16:01:15;18.47;;;6.93;;
32455;SDS011;18912;43.270;27.942;2022-09-29T16:03:50;26.67;;;8.82;;
32455;SDS011;18912;43.270;27.942;2022-09-29T16:06:29;17.50;;;8.40;;
32455;SDS011;18912;43.270;27.942;2022-09-29T16:08:57;20.50;;;9.45;;
32455;SDS011;18912;43.270;27.942;2022-09-29T16:11:29;20.48;;;9.20;;
32455;SDS011;18912;43.270;27.942;2022-09-29T16:14:02;15.45;;;7.60;;
32455;SDS011;18912;43.270;27.942;2022-09-29T16:16:39;23.45;;;8.30;;
32455;SDS011;18912;43.270;27.942;2022-09-29T16:19:08;19.27;;;9.50;;
32455;SDS011;18912;43.270;27.942;2022-09-29T16:21:48;17.52;;;7.30;;
32455;SDS011;18912;43.270;27.942;2022-09-29T16:24:16;24.77;;;7.93;;
32455;SDS011;18912;43.270;27.942;2022-09-29T16:26:45;12.52;;;6.32;;
32455;SDS011;18912;43.270;27.942;2022-09-29T16:31:45;18.92;;;7.53;;
32455;SDS011;18912;43.270;27.942;2022-09-29T16:34:34;16.50;;;7.15;;
32455;SDS011;18912;43.270;27.942;2022-09-29T16:37:02;19.63;;;7.55;;
32455;SDS011;18912;43.270;27.942;2022-09-29T16:39:31;18.50;;;7.78;;
32455;SDS011;18912;43.270;27.942;2022-09-29T16:42:04;18.55;;;9.30;;
32455;SDS011;18912;43.270;27.942;2022-09-29T16:49:49;16.10;;;7.65;;
32455;SDS011;18912;43.270;27.942;2022-09-29T16:52:26;18.27;;;7.25;;
32455;SDS011;18912;43.270;27.942;2022-09-29T16:57:32;19.20;;;9.38;;
32455;SDS011;18912;43.270;27.942;2022-09-29T17:00:05;18.15;;;8.20;;
32455;SDS011;18912;43.270;27.942;2022-09-29T17:02:35;21.52;;;8.50;;
32455;SDS011;18912;43.270;27.942;2022-09-29T17:05:01;20.90;;;8.53;;
32455;SDS011;18912;43.270;27.942;2022-09-29T17:07:29;19.35;;;8.25;;
32455;SDS011;18912;43.270;27.942;2022-09-29T17:12:23;19.65;;;7.75;;
32455;SDS011;18912;43.270;27.942;2022-09-29T17:14:50;18.45;;;8.93;;
32455;SDS011;18912;43.270;27.942;2022-09-29T17:17:20;29.30;;;9.83;;
32455;SDS011;18912;43.270;27.942;2022-09-29T17:19:50;17.77;;;8.02;;
32455;SDS011;18912;43.270;27.942;2022-09-29T17:22:19;23.58;;;8.63;;
32455;SDS011;18912;43.270;27.942;2022-09-29T17:24:46;19.88;;;9.45;;
32455;SDS011;18912;43.270;27.942;2022-09-29T17:27:11;28.73;;;9.37;;
32455;SDS011;18912;43.270;27.942;2022-09-29T17:29:55;25.63;;;9.13;;
32455;SDS011;18912;43.270;27.942;2022-09-29T17:32:21;26.53;;;9.20;;
32455;SDS011;18912;43.270;27.942;2022-09-29T17:34:47;27.08;;;8.60;;
32455;SDS011;18912;43.270;27.942;2022-09-29T17:37:13;30.37;;;9.77;;
32455;SDS011;18912;43.270;27.942;2022-09-29T17:39:42;16.80;;;8.10;;
32455;SDS011;18912;43.270;27.942;2022-09-29T17:42:07;19.93;;;8.47;;
32455;SDS011;18912;43.270;27.942;2022-09-29T17:44:33;15.23;;;7.20;;
32455;SDS011;18912;43.270;27.942;2022-09-29T17:47:00;19.63;;;7.40;;
32455;SDS011;18912;43.270;27.942;2022-09-29T17:49:26;21.10;;;7.18;;
32455;SDS011;18912;43.270;27.942;2022-09-29T17:51:52;30.80;;;8.10;;
32455;SDS011;18912;43.270;27.942;2022-09-29T17:54:17;19.00;;;7.63;;
32455;SDS011;18912;43.270;27.942;2022-09-29T17:56:43;12.40;;;6.90;;
32455;SDS011;18912;43.270;27.942;2022-09-29T17:59:08;24.90;;;7.90;;
32455;SDS011;18912;43.270;27.942;2022-09-29T18:01:34;22.43;;;7.23;;
32455;SDS011;18912;43.270;27.942;2022-09-29T18:04:01;14.27;;;6.35;;
32455;SDS011;18912;43.270;27.942;2022-09-29T18:06:28;18.70;;;7.00;;
32455;SDS011;18912;43.270;27.942;2022-09-29T18:08:55;23.33;;;6.65;;
32455;SDS011;18912;43.270;27.942;2022-09-29T18:11:22;14.88;;;6.05;;
32455;SDS011;18912;43.270;27.942;2022-09-29T18:13:49;12.95;;;6.15;;
32455;SDS011;18912;43.270;27.942;2022-09-29T18:16:16;14.45;;;6.93;;
32455;SDS011;18912;43.270;27.942;2022-09-29T18:18:44;11.82;;;6.80;;
32455;SDS011;18912;43.270;27.942;2022-09-29T18:21:10;9.73;;;5.80;;
32455;SDS011;18912;43.270;27.942;2022-09-29T18:23:36;13.25;;;6.00;;
32455;SDS011;18912;43.270;27.942;2022-09-29T18:26:05;11.88;;;5.50;;
32455;SDS011;18912;43.270;27.942;2022-09-29T18:28:31;13.50;;;5.55;;
32455;SDS011;18912;43.270;27.942;2022-09-29T18:31:01;12.60;;;5.88;;
32455;SDS011;18912;43.270;27.942;2022-09-29T18:33:31;13.68;;;5.55;;
32455;SDS011;18912;43.270;27.942;2022-09-29T18:35:57;19.20;;;4.85;;
32455;SDS011;18912;43.270;27.942;2022-09-29T18:40:50;20.02;;;5.68;;
32455;SDS011;18912;43.270;27.942;2022-09-29T18:43:18;15.48;;;5.72;;
32455;SDS011;18912;43.270;27.942;2022-09-29T18:45:45;10.05;;;5.18;;
32455;SDS011;18912;43.270;27.942;2022-09-29T18:50:39;15.93;;;5.75;;
32455;SDS011;18912;43.270;27.942;2022-09-29T18:53:14;15.73;;;6.22;;
32455;SDS011;18912;43.270;27.942;2022-09-29T18:55:41;13.88;;;5.78;;
32455;SDS011;18912;43.270;27.942;2022-09-29T18:58:08;26.70;;;6.43;;
32455;SDS011;18912;43.270;27.942;2022-09-29T19:00:38;13.20;;;5.65;;
32455;SDS011;18912;43.270;27.942;2022-09-29T19:03:05;12.63;;;6.78;;
32455;SDS011;18912;43.270;27.942;2022-09-29T19:05:31;13.93;;;6.73;;
32455;SDS011;18912;43.270;27.942;2022-09-29T19:08:02;16.45;;;6.15;;
32455;SDS011;18912;43.270;27.942;2022-09-29T19:10:30;12.27;;;5.68;;
32455;SDS011;18912;43.270;27.942;2022-09-29T19:13:01;12.00;;;6.20;;
32455;SDS011;18912;43.270;27.942;2022-09-29T19:15:28;16.67;;;5.85;;
32455;SDS011;18912;43.270;27.942;2022-09-29T19:17:55;8.95;;;5.57;;
32455;SDS011;18912;43.270;27.942;2022-09-29T19:20:22;18.43;;;5.97;;
32455;SDS011;18912;43.270;27.942;2022-09-29T19:22:50;16.83;;;6.03;;
32455;SDS011;18912;43.270;27.942;2022-09-29T19:25:18;11.45;;;5.88;;
32455;SDS011;18912;43.270;27.942;2022-09-29T19:27:46;11.38;;;5.80;;